Time;durP1;ratioP1;P1;durP2;ratioP2;P2;SDS_P1;SDS_P2;PMS_P1;PMS_P2;Temp;Humidity;BMP_temperature;BMP_pressure;BME280_temperature;BME280_humidity;BME280_pressure;Samples;Min_cycle;Max_cycle;Signal;HPM_P1;HPM_P2
2022/04/01 00:01:59;;;;;;;14.35;7.50;;;;;;;2.64;68.94;98478.97;10106464;29;20057;-73
2022/04/01 00:07:00;;;;;;;8.88;6.90;;;;;;;2.62;69.19;98478.16;10108692;29;20064;-73
2022/04/01 00:12:03;;;;;;;10.25;8.10;;;;;;;2.63;68.95;98468.63;10107423;29;20056;-73
2022/04/01 00:17:05;;;;;;;12.98;7.82;;;;;;;2.56;68.27;98467.91;10111293;29;20053;-73
2022/04/01 00:22:06;;;;;;;8.52;7.40;;;;;;;2.71;67.95;98464.13;10107988;29;20049;-74
2022/04/01 00:27:08;;;;;;;9.18;7.78;;;;;;;2.50;69.06;98453.38;10108758;29;20037;-74
2022/04/01 00:32:10;;;;;;;8.45;7.07;;;;;;;2.56;69.05;98459.28;10108972;29;20060;-74
2022/04/01 00:37:12;;;;;;;9.32;7.93;;;;;;;2.62;67.91;98470.38;10109869;29;20064;-74
2022/04/01 00:42:14;;;;;;;10.05;7.55;;;;;;;2.55;69.17;98468.81;10105678;29;20120;-74
2022/04/01 00:47:16;;;;;;;9.45;7.63;;;;;;;2.42;69.23;98478.63;10106258;29;20392;-74
2022/04/01 00:52:22;;;;;;;9.65;8.43;;;;;;;2.62;68.19;98472.97;10105802;29;20057;-73
2022/04/01 00:57:25;;;;;;;9.10;8.18;;;;;;;2.51;69.02;98478.41;10106522;29;20037;-73
2022/04/01 01:02:28;;;;;;;8.60;7.78;;;;;;;2.47;68.48;98471.59;10106366;29;20045;-73
2022/04/01 01:07:30;;;;;;;8.05;7.25;;;;;;;2.64;67.67;98475.53;10106483;29;20121;-73
2022/04/01 01:12:33;;;;;;;10.02;7.63;;;;;;;2.55;68.20;98467.97;10105768;29;20052;-73
2022/04/01 01:17:34;;;;;;;8.05;6.93;;;;;;;2.57;68.17;98464.47;10088405;29;20045;-73
2022/04/01 01:22:36;;;;;;;9.52;7.88;;;;;;;2.37;68.73;98467.53;10106787;29;20052;-73
2022/04/01 01:27:38;;;;;;;8.35;7.55;;;;;;;2.39;68.61;98454.50;10102171;29;20060;-73
2022/04/01 01:32:40;;;;;;;8.13;7.28;;;;;;;2.61;67.92;98454.84;10102374;29;20049;-74
2022/04/01 01:37:42;;;;;;;10.45;7.30;;;;;;;2.56;68.25;98448.91;10102123;29;20052;-74
2022/04/01 01:42:43;;;;;;;9.70;7.68;;;;;;;2.65;67.22;98452.13;10105202;29;20152;-73
2022/04/01 01:47:45;;;;;;;15.52;8.35;;;;;;;2.48;66.74;98447.38;10105167;29;20078;-73
2022/04/01 01:58:09;;;;;;;11.02;7.13;;;;;;;2.60;65.92;98429.78;10106664;29;20522;-73
2022/04/01 02:03:12;;;;;;;8.45;6.53;;;;;;;2.66;65.30;98427.06;10114477;29;20147;-73
2022/04/01 02:08:13;;;;;;;13.48;6.68;;;;;;;2.57;65.08;98427.28;10111906;29;20555;-73
2022/04/01 02:13:17;;;;;;;7.15;6.45;;;;;;;2.60;64.85;98429.78;10110774;29;20115;-74
2022/04/01 02:18:20;;;;;;;6.38;5.65;;;;;;;2.61;63.77;98426.31;10108703;29;20063;-73
2022/04/01 02:23:22;;;;;;;7.30;6.38;;;;;;;2.57;64.14;98425.56;10110011;29;20044;-74
2022/04/01 02:28:23;;;;;;;7.03;6.10;;;;;;;2.67;63.72;98428.75;10110396;29;20064;-74
2022/04/01 02:33:27;;;;;;;9.48;6.97;;;;;;;2.53;63.40;98432.56;10107703;29;20057;-74
2022/04/01 02:38:33;;;;;;;6.55;5.53;;;;;;;2.73;61.99;98429.44;10109061;29;20114;-73
2022/04/01 02:43:35;;;;;;;9.05;5.65;;;;;;;2.65;62.47;98422.75;10108195;29;20101;-73
2022/04/01 02:48:37;;;;;;;7.65;5.95;;;;;;;2.44;63.07;98434.53;10112613;29;20045;-73
2022/04/01 02:54:05;;;;;;;6.45;4.82;;;;;;;2.60;60.20;98429.78;10110059;29;20144;-74
2022/04/01 02:59:09;;;;;;;7.18;4.70;;;;;;;2.51;59.83;98428.28;10107494;29;20045;-74
2022/04/01 03:04:12;;;;;;;5.03;4.18;;;;;;;2.68;56.77;98435.66;10107772;29;20049;-73
2022/04/01 03:09:23;;;;;;;8.30;4.38;;;;;;;2.44;58.14;98437.97;10096129;29;20045;-73
2022/04/01 03:14:40;;;;;;;14.05;4.68;;;;;;;2.40;55.21;98438.09;10108327;29;20056;-74
2022/04/01 03:20:01;;;;;;;8.43;3.78;;;;;;;2.31;55.75;98444.34;10108306;29;20052;-73
2022/04/01 03:25:06;;;;;;;15.00;4.40;;;;;;;2.26;54.54;98438.41;10108150;29;20426;-73
2022/04/01 03:30:18;;;;;;;5.50;3.15;;;;;;;2.48;53.87;98446.53;10110214;29;20073;-73
2022/04/01 03:35:20;;;;;;;7.80;4.15;;;;;;;2.48;53.51;98454.31;10106073;29;20057;-75
2022/04/01 03:40:22;;;;;;;5.25;4.03;;;;;;;2.38;53.99;98458.84;10106815;29;20112;-77
2022/04/01 03:45:25;;;;;;;6.28;4.53;;;;;;;2.27;52.83;98453.94;10108898;29;20053;-76
2022/04/01 03:50:49;;;;;;;8.70;3.83;;;;;;;2.28;53.33;98462.56;10110793;29;20056;-77
2022/04/01 03:55:52;;;;;;;7.53;3.97;;;;;;;2.36;53.59;98455.44;10113549;29;20045;-77
2022/04/01 04:00:55;;;;;;;5.95;3.78;;;;;;;2.24;54.32;98459.19;10107942;29;20492;-77
2022/04/01 04:06:01;;;;;;;6.97;4.25;;;;;;;2.16;54.99;98453.31;10107401;29;20207;-77
2022/04/01 04:11:06;;;;;;;5.68;3.97;;;;;;;2.05;55.83;98457.06;10106560;29;20055;-77
2022/04/01 04:16:19;;;;;;;7.72;4.03;;;;;;;2.16;56.08;98468.03;10109897;29;20045;-77
2022/04/01 04:21:27;;;;;;;12.25;4.20;;;;;;;2.08;56.12;98475.13;10105436;29;20500;-77
2022/04/01 04:26:37;;;;;;;10.65;3.80;;;;;;;1.99;56.36;98469.28;10106633;29;20048;-76
2022/04/01 04:31:50;;;;;;;5.18;4.05;;;;;;;1.95;57.70;98475.41;10104820;29;20064;-77
2022/04/01 04:36:57;;;;;;;8.73;4.25;;;;;;;1.97;58.07;98488.31;10111628;29;20088;-77
2022/04/01 04:42:02;;;;;;;5.13;4.38;;;;;;;1.87;58.16;98502.38;10111819;29;20144;-76
2022/04/01 04:47:05;;;;;;;7.13;4.20;;;;;;;1.88;57.79;98504.06;10112026;29;20041;-77
2022/04/01 04:52:08;;;;;;;11.32;4.32;;;;;;;1.81;58.17;98511.09;10106006;29;20056;-77
2022/04/01 04:57:25;;;;;;;10.68;4.45;;;;;;;1.81;58.90;98521.47;10112748;29;20555;-77
2022/04/01 05:02:30;;;;;;;5.18;4.65;;;;;;;1.73;59.15;98510.44;10107473;29;20401;-77
2022/04/01 05:07:55;;;;;;;7.53;4.88;;;;;;;1.64;60.36;98520.94;10107001;29;20125;-78
2022/04/01 05:13:39;;;;;;;4.80;3.22;;;;;;;1.56;62.00;98521.13;10144979;23;20049;-70
2022/04/01 05:19:02;;;;;;;5.70;5.17;;;;;;;1.27;65.07;98530.28;10129809;29;20392;-70
2022/04/01 05:24:10;;;;;;;7.03;5.57;;;;;;;1.11;67.05;98538.38;10096353;29;20079;-70
2022/04/01 05:29:18;;;;;;;6.00;4.70;;;;;;;0.99;68.93;98544.63;10097058;29;20041;-71
2022/04/01 05:34:40;;;;;;;6.53;5.53;;;;;;;0.86;70.40;98558.63;10094886;29;20051;-70
2022/04/01 05:39:47;;;;;;;9.55;5.90;;;;;;;0.83;72.15;98559.53;10096893;29;20132;-70
2022/04/01 05:44:52;;;;;;;10.02;6.20;;;;;;;0.75;72.81;98571.72;10095451;29;20076;-70
2022/04/01 05:49:57;;;;;;;8.60;6.00;;;;;;;0.80;73.00;98574.22;10096838;29;20052;-70
2022/04/01 05:55:00;;;;;;;6.45;5.85;;;;;;;0.77;73.59;98569.97;10097023;29;20057;-70
2022/04/01 06:00:05;;;;;;;7.40;6.53;;;;;;;0.71;74.71;98576.09;10095434;29;20105;-70
2022/04/01 06:05:33;;;;;;;9.25;6.10;;;;;;;0.68;75.35;98581.31;10096608;29;20049;-70
2022/04/01 06:10:38;;;;;;;10.35;6.97;;;;;;;0.34;75.92;98591.28;10094928;29;20060;-71
2022/04/01 06:16:13;;;;;;;6.47;5.80;;;;;;;0.42;77.93;98586.88;10096637;29;20052;-71
2022/04/01 06:22:05;;;;;;;10.00;6.40;;;;;;;0.29;76.54;98592.22;10088864;29;20460;-71
2022/04/01 06:27:27;;;;;;;7.50;6.70;;;;;;;0.21;76.58;98597.50;10096169;29;20057;-70
2022/04/01 06:32:40;;;;;;;7.65;6.70;;;;;;;0.34;77.83;98606.78;10095654;29;20068;-71
2022/04/01 06:37:52;;;;;;;12.77;7.10;;;;;;;0.31;76.92;98616.31;10095020;29;20105;-72
2022/04/01 06:42:54;;;;;;;6.78;5.90;;;;;;;0.35;77.86;98618.84;10096002;29;20084;-71
2022/04/01 06:48:19;;;;;;;8.88;7.97;;;;;;;0.52;77.63;98616.03;10103173;29;20559;-71
2022/04/01 06:53:46;;;;;;;10.00;7.53;;;;;;;0.50;77.22;98623.81;10101048;29;20061;-72
2022/04/01 06:59:07;;;;;;;7.63;6.93;;;;;;;0.36;76.12;98633.50;10103283;29;20049;-71
2022/04/01 07:04:08;;;;;;;8.15;7.20;;;;;;;0.21;76.10;98626.78;10103289;29;20451;-71
2022/04/01 07:09:10;;;;;;;8.23;7.53;;;;;;;0.10;76.77;98644.16;10103165;29;20045;-71
2022/04/01 07:14:12;;;;;;;8.38;7.60;;;;;;;0.14;76.40;98644.97;10103389;29;20487;-71
2022/04/01 07:19:13;;;;;;;8.18;7.38;;;;;;;0.10;75.99;98657.06;10102387;29;20053;-71
2022/04/01 07:24:15;;;;;;;7.60;6.90;;;;;;;0.19;76.20;98648.34;10102638;29;20057;-71
2022/04/01 07:29:17;;;;;;;8.65;6.88;;;;;;;0.26;74.57;98655.13;10101880;29;20056;-71
2022/04/01 07:34:21;;;;;;;7.75;7.07;;;;;;;0.17;74.49;98653.53;10100447;29;20419;-71
2022/04/01 07:39:23;;;;;;;7.65;7.05;;;;;;;0.23;75.01;98660.38;10101800;29;20048;-71
2022/04/01 07:44:24;;;;;;;6.93;6.32;;;;;;;0.28;75.08;98663.75;10101285;29;20105;-71
2022/04/01 07:49:26;;;;;;;7.68;6.97;;;;;;;0.01;75.53;98662.34;10099622;29;20053;-72
2022/04/01 07:54:49;;;;;;;8.55;7.57;;;;;;;0.18;76.16;98662.16;10101063;29;20088;-72
2022/04/01 07:59:51;;;;;;;7.35;6.75;;;;;;;0.30;75.13;98669.75;10100434;29;20460;-71
2022/04/01 08:04:53;;;;;;;7.70;6.88;;;;;;;0.25;75.90;98684.44;10100790;29;20395;-72
2022/04/01 08:09:56;;;;;;;7.93;7.18;;;;;;;0.24;76.63;98687.91;10099930;29;20116;-71
2022/04/01 08:14:57;;;;;;;8.10;7.38;;;;;;;0.07;77.63;98698.44;10100758;29;20057;-71
2022/04/01 08:19:59;;;;;;;8.98;7.90;;;;;;;0.39;78.01;98699.78;10099788;29;20487;-71
2022/04/01 08:25:00;;;;;;;7.70;7.07;;;;;;;0.47;78.54;98696.22;10100014;29;20388;-71
2022/04/01 08:30:02;;;;;;;8.75;7.95;;;;;;;0.32;78.75;98701.59;10100291;29;20064;-71
2022/04/01 08:35:06;;;;;;;11.38;10.30;;;;;;;0.18;79.73;98708.66;10099838;29;20052;-71
2022/04/01 08:40:08;;;;;;;12.50;11.48;;;;;;;0.25;80.75;98720.63;10099168;29;20476;-71
2022/04/01 08:45:10;;;;;;;14.32;13.02;;;;;;;0.35;80.66;98717.06;10098080;29;20049;-71
2022/04/01 08:50:11;;;;;;;14.82;13.73;;;;;;;0.56;79.86;98717.69;10098952;29;20049;-70
2022/04/01 08:55:13;;;;;;;16.17;14.98;;;;;;;0.49;80.21;98722.94;10097383;29;20518;-72
2022/04/01 09:00:14;;;;;;;20.83;18.10;;;;;;;0.30;80.71;98728.34;10097959;29;20053;-70
2022/04/01 09:05:16;;;;;;;17.90;15.90;;;;;;;0.33;81.01;98734.31;10098719;29;20056;-70
2022/04/01 09:10:18;;;;;;;15.93;13.95;;;;;;;0.45;81.48;98741.09;10098784;29;20430;-70
2022/04/01 09:15:19;;;;;;;15.25;13.95;;;;;;;0.40;82.69;98741.16;10098690;29;20105;-70
2022/04/01 09:20:21;;;;;;;13.70;12.50;;;;;;;0.56;81.60;98743.53;10098986;29;20048;-70
2022/04/01 09:25:23;;;;;;;12.57;10.80;;;;;;;0.65;79.52;98751.19;10098113;29;20206;-70
2022/04/01 09:30:30;;;;;;;13.63;12.35;;;;;;;0.77;80.18;98748.44;10096774;29;20049;-70
2022/04/01 09:35:32;;;;;;;;;;;;;;;0.79;74.58;98754.44;10099452;29;20048;-70
2022/04/01 09:40:37;;;;;;;12.30;6.43;;;;;;;0.83;76.49;98742.34;10098097;29;19924;-71
2022/04/01 09:45:40;;;;;;;8.80;5.87;;;;;;;1.05;75.66;98742.91;10097092;29;20052;-70
2022/04/01 09:50:44;;;;;;;6.93;5.97;;;;;;;1.19;74.35;98741.81;10095994;29;20072;-71
2022/04/01 09:55:48;;;;;;;9.27;6.53;;;;;;;1.04;74.64;98756.72;10098963;29;20057;-72
2022/04/01 10:00:51;;;;;;;7.40;6.70;;;;;;;1.16;75.32;98747.06;10097407;29;20052;-71
2022/04/01 10:05:53;;;;;;;7.43;6.28;;;;;;;1.42;73.93;98738.91;10097944;29;20554;-70
2022/04/01 10:10:55;;;;;;;10.30;8.05;;;;;;;1.50;72.87;98747.38;10097851;29;20109;-71
2022/04/01 10:15:58;;;;;;;7.15;6.55;;;;;;;1.27;71.76;98746.88;10099950;29;20108;-71
2022/04/01 10:21:20;;;;;;;6.55;5.85;;;;;;;1.29;70.72;98744.28;10104740;29;20045;-71
2022/04/01 10:26:22;;;;;;;8.10;6.68;;;;;;;1.75;71.52;98752.16;10104437;29;20076;-72
2022/04/01 10:31:25;;;;;;;7.88;7.18;;;;;;;1.78;70.13;98754.72;10104696;29;20562;-72
2022/04/01 10:36:27;;;;;;;8.80;7.50;;;;;;;1.66;69.14;98747.13;10103802;29;20056;-72
2022/04/01 10:41:28;;;;;;;17.77;12.05;;;;;;;1.77;69.34;98750.38;10103940;29;20052;-72
2022/04/01 10:46:30;;;;;;;7.18;6.47;;;;;;;1.86;66.26;98758.03;10102933;29;20518;-71
2022/04/01 10:51:37;;;;;;;7.30;6.60;;;;;;;1.79;65.86;98750.38;10103111;29;20049;-72
2022/04/01 10:56:41;;;;;;;7.32;6.63;;;;;;;1.91;64.81;98752.78;10103225;29;20081;-72
2022/04/01 11:02:04;;;;;;;8.52;7.70;;;;;;;2.16;65.18;98768.72;10103296;29;20118;-72
2022/04/01 11:07:29;;;;;;;7.18;6.47;;;;;;;1.75;64.38;98770.31;10104013;29;20053;-72
2022/04/01 11:12:33;;;;;;;13.05;6.72;;;;;;;1.73;66.29;98783.28;10103218;29;20423;-72
2022/04/01 11:17:35;;;;;;;7.88;6.70;;;;;;;1.77;66.52;98784.06;10102854;29;20105;-72
2022/04/01 11:22:44;;;;;;;11.25;7.10;;;;;;;1.56;68.46;98797.38;10102173;29;20088;-72
2022/04/01 11:27:51;;;;;;;7.57;6.80;;;;;;;1.66;67.97;98814.50;10102178;29;20104;-72
2022/04/01 11:32:59;;;;;;;8.63;6.32;;;;;;;1.34;68.35;98805.47;10100161;29;20060;-72
2022/04/01 11:38:13;;;;;;;6.60;5.88;;;;;;;1.24;67.88;98804.75;10100451;29;20053;-71
2022/04/01 11:43:19;;;;;;;11.35;6.97;;;;;;;1.40;66.88;98802.78;10100465;29;20080;-71
2022/04/01 11:48:29;;;;;;;7.07;6.38;;;;;;;1.44;67.59;98803.59;10101373;29;20085;-72
2022/04/01 11:53:36;;;;;;;8.50;5.43;;;;;;;1.46;65.27;98805.28;10101968;29;20464;-72
2022/04/01 11:58:46;;;;;;;7.77;5.77;;;;;;;1.48;63.21;98806.13;10101056;29;20049;-72
2022/04/01 12:03:48;;;;;;;6.25;5.03;;;;;;;1.46;63.19;98802.72;10101534;29;20802;-72
2022/04/01 12:08:49;;;;;;;9.48;5.30;;;;;;;1.86;63.03;98796.03;10101272;29;20052;-72
2022/04/01 12:13:55;;;;;;;9.80;5.07;;;;;;;1.91;62.67;98794.25;10099441;29;20468;-72
2022/04/01 12:18:57;;;;;;;9.50;6.53;;;;;;;1.91;63.31;98787.31;10100266;29;20072;-72
2022/04/01 12:23:59;;;;;;;7.63;4.93;;;;;;;2.24;59.34;98785.84;10101859;29;20076;-72
2022/04/01 12:29:01;;;;;;;6.15;5.43;;;;;;;2.32;60.36;98790.91;10099070;29;20097;-72
2022/04/01 12:34:02;;;;;;;11.45;5.15;;;;;;;2.58;57.36;98790.41;10100104;29;20045;-71
2022/04/01 12:39:09;;;;;;;5.82;5.28;;;;;;;2.79;58.47;98786.56;10097981;29;20045;-71
2022/04/01 12:44:12;;;;;;;5.63;5.10;;;;;;;3.08;57.89;98791.13;10098599;29;20049;-73
2022/04/01 12:49:16;;;;;;;5.93;5.10;;;;;;;2.88;56.67;98781.16;10099134;29;20048;-71
2022/04/01 12:54:34;;;;;;;6.28;5.68;;;;;;;3.22;55.21;98789.06;10098700;29;20049;-72
2022/04/01 12:59:40;;;;;;;6.43;5.18;;;;;;;3.43;56.07;98776.50;10098608;29;20059;-71
2022/04/01 13:04:45;;;;;;;4.68;4.18;;;;;;;3.38;52.88;98768.81;10099414;29;20415;-72
2022/04/01 13:09:51;;;;;;;4.53;4.07;;;;;;;3.54;50.74;98774.50;10098610;29;20117;-71
2022/04/01 13:14:56;;;;;;;7.65;4.63;;;;;;;3.25;52.24;98772.56;10097271;29;20049;-72
2022/04/01 13:19:58;;;;;;;9.90;4.80;;;;;;;3.55;52.24;98771.03;10097248;29;20053;-71
2022/04/01 13:25:01;;;;;;;13.27;5.47;;;;;;;3.62;50.84;98763.91;10098665;29;20052;-72
2022/04/01 13:30:05;;;;;;;8.02;4.78;;;;;;;3.69;52.65;98765.50;10097662;29;20510;-71
2022/04/01 13:35:07;;;;;;;9.82;4.22;;;;;;;3.71;50.46;98750.72;10097583;29;20104;-71
2022/04/01 13:40:10;;;;;;;5.65;4.28;;;;;;;3.82;49.95;98753.91;10097321;29;20500;-71
2022/04/01 13:45:11;;;;;;;6.15;4.97;;;;;;;3.83;50.45;98749.56;10097730;29;20053;-71
2022/04/01 13:50:13;;;;;;;5.35;4.25;;;;;;;4.14;49.98;98744.44;10097121;29;20045;-71
2022/04/01 13:55:14;;;;;;;4.63;4.07;;;;;;;3.97;50.79;98756.09;10096099;29;20045;-71
2022/04/01 14:00:19;;;;;;;4.25;3.83;;;;;;;4.09;50.90;98749.75;10095082;29;20144;-71
2022/04/01 14:05:20;;;;;;;5.80;3.95;;;;;;;4.24;49.33;98759.72;10097676;29;20053;-72
2022/04/01 14:10:28;;;;;;;5.57;4.65;;;;;;;4.27;49.99;98757.06;10097177;29;20049;-72
2022/04/01 14:15:30;;;;;;;4.65;3.80;;;;;;;4.21;49.37;98749.44;10096483;29;20124;-71
2022/04/01 14:20:32;;;;;;;7.45;4.65;;;;;;;4.22;49.54;98745.94;10096604;29;20049;-71
2022/04/01 14:25:33;;;;;;;8.27;4.47;;;;;;;4.47;49.62;98747.84;10096720;29;20473;-71
2022/04/01 14:30:35;;;;;;;9.07;5.03;;;;;;;4.55;49.81;98748.50;10095595;29;20049;-71
2022/04/01 14:35:37;;;;;;;10.35;4.53;;;;;;;4.50;49.04;98748.63;10096273;29;20396;-72
2022/04/01 14:40:38;;;;;;;10.90;4.55;;;;;;;4.30;49.77;98753.53;10096547;29;20110;-72
2022/04/01 14:45:40;;;;;;;9.10;4.07;;;;;;;4.40;50.19;98760.19;10094990;29;20057;-71
2022/04/01 14:50:43;;;;;;;9.35;4.50;;;;;;;4.30;50.46;98762.19;10096944;29;20049;-71
2022/04/01 14:55:47;;;;;;;18.20;6.53;;;;;;;4.39;50.59;98765.44;10095903;29;20097;-71
2022/04/01 15:00:49;;;;;;;6.85;5.07;;;;;;;4.34;51.40;98764.69;10095717;29;20049;-71
2022/04/01 15:05:50;;;;;;;5.82;5.22;;;;;;;4.78;49.76;98764.34;10096979;29;20067;-70
2022/04/01 15:10:52;;;;;;;5.07;3.83;;;;;;;4.84;50.79;98760.69;10102429;29;20041;-70
2022/04/01 15:15:53;;;;;;;7.28;3.88;;;;;;;5.02;48.70;98769.72;10103234;29;20179;-71
2022/04/01 15:20:56;;;;;;;7.43;4.05;;;;;;;4.78;50.07;98773.88;10101819;29;20049;-71
2022/04/01 15:25:58;;;;;;;13.60;4.88;;;;;;;4.79;49.32;98767.78;10101979;29;20060;-70
2022/04/01 15:31:02;;;;;;;9.65;4.55;;;;;;;4.96;49.28;98770.75;10101779;29;20128;-70
2022/04/01 15:36:05;;;;;;;9.75;4.78;;;;;;;5.02;49.88;98778.38;10100850;29;20049;-71
2022/04/01 15:41:08;;;;;;;5.72;3.88;;;;;;;4.90;50.34;98783.09;10101950;29;20045;-71
2022/04/01 15:46:11;;;;;;;7.15;4.40;;;;;;;4.97;50.56;98780.28;10102787;29;20492;-71
2022/04/01 15:51:13;;;;;;;18.70;5.22;;;;;;;5.01;50.83;98789.72;10101761;29;20128;-71
2022/04/01 15:56:14;;;;;;;9.18;4.70;;;;;;;5.05;49.10;98785.25;10100802;29;20116;-71
2022/04/01 16:01:22;;;;;;;7.68;3.67;;;;;;;4.83;50.73;98794.59;10100728;29;20073;-71
2022/04/01 16:06:26;;;;;;;14.82;4.82;;;;;;;4.68;50.33;98801.06;10100676;29;20052;-71
2022/04/01 16:11:31;;;;;;;15.60;4.43;;;;;;;4.81;49.39;98805.03;10100193;29;20377;-70
2022/04/01 16:16:35;;;;;;;10.55;3.28;;;;;;;5.00;48.43;98807.97;10100424;29;20056;-71
2022/04/01 16:21:36;;;;;;;11.00;4.05;;;;;;;5.15;47.48;98807.53;10100370;29;20045;-71
2022/04/01 16:26:38;;;;;;;7.70;3.70;;;;;;;4.88;48.07;98817.00;10100719;29;20492;-72
2022/04/01 16:31:41;;;;;;;10.93;3.30;;;;;;;4.87;48.62;98819.63;10099366;29;20057;-70
2022/04/01 16:36:43;;;;;;;5.70;4.18;;;;;;;4.82;49.03;98827.56;10100546;29;20441;-69
2022/04/01 16:41:44;;;;;;;11.25;3.03;;;;;;;4.84;44.13;98828.38;10098909;29;20041;-70
2022/04/01 16:46:48;;;;;;;13.50;2.65;;;;;;;4.98;41.62;98836.66;10098791;29;20049;-70
2022/04/01 16:51:50;;;;;;;6.57;2.08;;;;;;;4.95;42.75;98847.16;10098831;29;20084;-70
2022/04/01 16:56:51;;;;;;;17.00;3.53;;;;;;;4.79;41.83;98856.31;10097115;29;20052;-70
2022/04/01 17:01:53;;;;;;;10.27;2.60;;;;;;;4.71;41.92;98856.50;10098175;29;20048;-71
2022/04/01 17:17:36;;;;;;;10.27;2.78;;;;;;;4.71;43.36;98879.94;10097967;29;20127;-70
2022/04/01 17:22:39;;;;;;;11.98;3.92;;;;;;;4.67;43.35;98882.66;10097812;29;20415;-69
2022/04/01 17:27:41;;;;;;;13.18;2.22;;;;;;;4.54;43.08;98874.31;10097652;29;20180;-70
2022/04/01 17:32:49;;;;;;;7.68;2.30;;;;;;;4.44;43.35;98896.28;10097746;29;20049;-71
2022/04/01 17:37:53;;;;;;;11.45;2.28;;;;;;;4.59;42.57;98898.47;10097467;29;20504;-70
2022/04/01 17:42:57;;;;;;;18.10;2.88;;;;;;;4.40;41.11;98905.03;10096962;29;20060;-70
2022/04/01 17:48:00;;;;;;;11.00;2.30;;;;;;;4.45;40.56;98903.19;10096676;29;20548;-70
2022/04/01 17:53:03;;;;;;;15.63;1.90;;;;;;;4.39;39.47;98925.00;10098406;29;20124;-71
2022/04/01 17:58:11;;;;;;;19.00;2.83;;;;;;;4.37;38.95;98925.91;10097438;29;20059;-71
2022/04/01 18:03:13;;;;;;;9.77;2.10;;;;;;;4.28;38.18;98934.78;10098296;29;20415;-70
2022/04/01 18:08:18;;;;;;;17.42;2.63;;;;;;;4.27;37.90;98948.69;10097685;29;20474;-71
2022/04/01 18:13:20;;;;;;;18.58;2.83;;;;;;;4.30;38.50;98956.44;10097371;29;20582;-71
2022/04/01 18:18:23;;;;;;;17.58;2.50;;;;;;;4.15;39.45;98948.97;10097525;29;20045;-71
2022/04/01 18:23:24;;;;;;;24.10;2.53;;;;;;;4.18;39.73;98946.31;10096990;29;20105;-71
2022/04/01 18:28:37;;;;;;;10.55;2.13;;;;;;;4.19;39.64;98948.03;10096724;29;20508;-70
2022/04/01 18:33:52;;;;;;;17.38;2.92;;;;;;;4.14;40.43;98953.34;10097747;29;20045;-70
2022/04/01 18:38:55;;;;;;;14.07;3.83;;;;;;;4.29;38.84;98950.38;10098768;29;20045;-71
2022/04/01 18:43:58;;;;;;;18.85;2.60;;;;;;;4.24;39.42;98946.16;10104933;29;20109;-71
2022/04/01 18:49:04;;;;;;;20.38;3.60;;;;;;;4.23;39.18;98953.13;10104341;29;20526;-70
2022/04/01 18:54:06;;;;;;;6.82;1.67;;;;;;;4.24;40.47;98946.16;10104262;29;20463;-70
2022/04/01 18:59:07;;;;;;;11.82;3.17;;;;;;;4.21;40.65;98956.66;10103801;29;20452;-70
2022/04/01 19:04:10;;;;;;;15.18;3.65;;;;;;;4.07;40.30;98966.50;10103485;29;20097;-70
2022/04/01 19:09:24;;;;;;;12.23;3.78;;;;;;;3.92;40.60;98971.16;10102796;29;20044;-70
2022/04/01 19:14:26;;;;;;;10.70;3.40;;;;;;;3.99;39.54;98967.56;10103266;29;20104;-70
2022/04/01 19:19:31;;;;;;;26.25;3.20;;;;;;;3.83;40.99;98971.34;10102908;29;20098;-71
2022/04/01 19:24:35;;;;;;;32.78;3.85;;;;;;;3.77;40.93;98966.31;10102470;29;20041;-70
2022/04/01 19:29:36;;;;;;;21.92;3.83;;;;;;;3.95;40.80;98972.84;10102461;29;20045;-71
2022/04/01 19:34:39;;;;;;;12.60;2.92;;;;;;;4.11;38.57;98989.81;10102551;29;20055;-70
2022/04/01 19:39:41;;;;;;;13.65;2.92;;;;;;;4.18;39.86;98990.53;10102625;29;20196;-70
2022/04/01 19:44:45;;;;;;;20.02;2.97;;;;;;;3.99;39.49;98996.16;10101716;29;20044;-70
2022/04/01 19:49:46;;;;;;;11.30;2.20;;;;;;;3.94;38.89;98992.81;10100809;29;20496;-71
2022/04/01 19:54:48;;;;;;;6.60;2.67;;;;;;;4.19;37.13;98998.28;10101909;29;20556;-70
2022/04/01 19:59:50;;;;;;;10.07;2.58;;;;;;;4.23;37.77;99006.88;10100988;29;20059;-70
2022/04/01 20:04:51;;;;;;;14.75;3.00;;;;;;;4.09;37.51;99006.34;10100709;29;20398;-70
2022/04/01 20:09:53;;;;;;;9.85;3.13;;;;;;;3.90;38.38;99001.56;10100598;29;20045;-70
2022/04/01 20:14:55;;;;;;;10.98;2.50;;;;;;;3.83;38.06;99012.94;10099081;29;20571;-70
2022/04/01 20:19:56;;;;;;;8.55;2.25;;;;;;;4.10;37.24;99002.84;10100413;29;20105;-71
2022/04/01 20:24:58;;;;;;;26.63;2.25;;;;;;;4.10;37.26;99008.06;10099675;29;20089;-70
2022/04/01 20:30:01;;;;;;;6.75;1.90;;;;;;;4.02;36.77;99022.06;10100021;29;20136;-70
2022/04/01 20:35:03;;;;;;;9.32;1.85;;;;;;;3.98;37.38;99025.63;10100051;29;20052;-70
2022/04/01 20:40:05;;;;;;;16.75;2.28;;;;;;;4.08;37.05;99023.69;10099152;29;20136;-70
2022/04/01 20:45:08;;;;;;;17.20;2.88;;;;;;;3.90;37.86;99031.91;10099316;29;20053;-71
2022/04/01 20:50:09;;;;;;;8.90;2.17;;;;;;;4.11;36.29;99030.56;10098897;29;20504;-70
2022/04/01 20:55:11;;;;;;;12.82;4.03;;;;;;;4.00;35.57;99026.47;10099131;29;20056;-72
2022/04/01 21:00:13;;;;;;;16.02;6.10;;;;;;;3.92;36.99;99030.09;10099116;29;20045;-71
2022/04/01 21:05:15;;;;;;;13.80;3.38;;;;;;;3.95;36.80;99035.25;10097963;29;20056;-69
2022/04/01 21:10:17;;;;;;;5.60;2.20;;;;;;;3.92;38.04;99046.56;10098431;29;20045;-69
2022/04/01 21:15:18;;;;;;;9.38;2.42;;;;;;;3.80;38.13;99052.00;10097979;29;20105;-70
2022/04/01 21:20:20;;;;;;;8.98;2.58;;;;;;;3.74;38.28;99049.53;10098558;29;20081;-71
2022/04/01 21:25:22;;;;;;;10.20;2.13;;;;;;;3.70;37.97;99055.69;10098123;29;20057;-72
2022/04/01 21:30:24;;;;;;;7.72;2.28;;;;;;;3.75;38.31;99054.69;10096547;29;20048;-70
2022/04/01 21:35:25;;;;;;;9.18;3.22;;;;;;;3.74;37.85;99055.59;10097584;29;20087;-70
2022/04/01 21:40:27;;;;;;;9.93;2.03;;;;;;;3.77;37.66;99063.34;10097817;29;20487;-70
2022/04/01 21:45:30;;;;;;;11.10;2.05;;;;;;;3.77;37.67;99060.72;10097343;29;20053;-69
2022/04/01 21:50:31;;;;;;;13.93;2.33;;;;;;;3.66;37.57;99073.06;10097377;29;20093;-70
2022/04/01 21:55:34;;;;;;;17.45;2.15;;;;;;;3.56;37.85;99068.94;10098331;29;20104;-69
2022/04/01 22:00:39;;;;;;;6.75;2.30;;;;;;;3.66;37.54;99059.22;10097793;29;20124;-69
2022/04/01 22:05:44;;;;;;;5.90;2.38;;;;;;;3.49;37.35;99065.59;10097689;29;20087;-70
2022/04/01 22:10:45;;;;;;;15.68;2.58;;;;;;;3.58;37.72;99074.09;10097106;29;20052;-71
2022/04/01 22:15:47;;;;;;;10.15;2.05;;;;;;;3.47;37.73;99077.75;10101215;29;20053;-71
2022/04/01 22:20:48;;;;;;;7.50;3.13;;;;;;;3.43;37.06;99098.63;10104592;29;20174;-70
2022/04/01 22:25:50;;;;;;;10.43;3.40;;;;;;;3.43;36.57;99091.69;10104246;29;20071;-70
2022/04/01 22:30:52;;;;;;;8.10;2.60;;;;;;;3.27;37.46;99087.63;10104091;29;20048;-70
2022/04/01 22:35:54;;;;;;;15.05;2.35;;;;;;;3.29;37.92;99099.72;10104304;29;20052;-70
2022/04/01 22:41:01;;;;;;;13.57;2.30;;;;;;;3.34;38.69;99101.38;10103602;29;20045;-70
2022/04/01 22:46:04;;;;;;;5.82;2.10;;;;;;;3.23;38.97;99096.38;10105646;29;20056;-70
2022/04/01 22:51:06;;;;;;;8.70;2.08;;;;;;;3.21;40.48;99093.81;10103692;29;20045;-70
2022/04/01 22:56:08;;;;;;;7.30;2.42;;;;;;;3.12;39.67;99100.91;10104553;29;20053;-71
2022/04/01 23:01:09;;;;;;;7.65;1.77;;;;;;;3.13;39.61;99108.66;10103250;29;20049;-70
2022/04/01 23:06:11;;;;;;;15.85;2.40;;;;;;;3.17;40.11;99118.09;10102958;29;20396;-70
2022/04/01 23:11:12;;;;;;;7.38;2.15;;;;;;;3.10;40.41;99123.41;10117008;23;20110;-73
2022/04/01 23:16:14;;;;;;;10.95;3.03;;;;;;;3.02;40.93;99127.00;10105961;29;20052;-73
2022/04/01 23:21:17;;;;;;;14.90;2.67;;;;;;;3.01;41.23;99129.63;10081595;29;20050;-72
2022/04/01 23:26:19;;;;;;;10.70;2.60;;;;;;;2.98;41.98;99127.94;10066384;29;20041;-72
2022/04/01 23:31:21;;;;;;;16.77;2.90;;;;;;;2.87;42.14;99135.03;10067538;29;20072;-72
2022/04/01 23:36:22;;;;;;;9.13;2.90;;;;;;;2.80;43.00;99132.56;10068113;29;20109;-73
2022/04/01 23:41:24;;;;;;;9.30;2.65;;;;;;;3.03;42.24;99133.91;10068635;29;20046;-72
2022/04/01 23:46:27;;;;;;;18.52;2.85;;;;;;;2.99;42.74;99145.22;10067809;29;20504;-72
2022/04/01 23:51:29;;;;;;;11.10;2.55;;;;;;;2.88;42.77;99141.94;10066434;29;20178;-72
2022/04/01 23:56:31;;;;;;;7.93;2.13;;;;;;;2.80;43.09;99151.59;10066511;29;20053;-72
